Latest Weather Observations for Melville Water

IDW60901

Issued at 12:15 pm WST Friday 28 November 2014 (issued every 10 minutes, with the page automatically refreshed every 10 minutes)

About weather observations | Map of Perth area stations | Latest observations for Perth area | Other Formats
Station Details ID: 009091 Name: INNER DOLPHIN PYLON Lat: -31.99 Lon: 115.83 Height: 0.0 m
Data from the previous 72 hours. | See also: Recent months for locations in Western Australia
Date/Time
WST
Tmp

°C
App
Tmp
°C
Dew
Point
°C
Rel
Hum
%
Delta-T

°C
Wind Press
QNH
hPa
Press
MSL
hPa
Rain
since
9 am
mm
Dir
 
Spd
km/h
Gust
km/h
Spd
kts
Gust
kts
28/12:00pm - - - - - WSW 26 32 14 17 - - -
28/11:30am - - - - - WSW 26 33 14 18 - - -
28/11:00am - - - - - WSW 26 32 14 17 - - -
28/10:30am - - - - - SW 24 28 13 15 - - -
28/10:00am - - - - - SSW 26 32 14 17 - - -
28/09:30am - - - - - WSW 22 30 12 16 - - -
28/09:00am - - - - - SW 22 30 12 16 - - -
28/08:30am - - - - - SW 20 26 11 14 - - -
28/08:00am - - - - - WSW 19 24 10 13 - - -
28/07:30am - - - - - WSW 15 19 8 10 - - -
28/07:00am - - - - - SW 6 9 3 5 - - -
28/06:30am - - - - - SSW 7 9 4 5 - - -
28/06:00am - - - - - SSW 9 13 5 7 - - -
28/05:30am - - - - - S 9 11 5 6 - - -
28/05:00am - - - - - SSW 11 11 6 6 - - -
28/04:30am - - - - - S 6 7 3 4 - - -
28/04:00am - - - - - S 7 11 4 6 - - -
28/03:30am - - - - - S 7 11 4 6 - - -
28/03:00am - - - - - SSW 13 19 7 10 - - -
28/02:30am - - - - - S 7 11 4 6 - - -
28/02:00am - - - - - WSW 9 15 5 8 - - -
28/01:30am - - - - - SSE 7 9 4 5 - - -
28/01:00am - - - - - ENE 4 6 2 3 - - -
28/12:30am - - - - - SE 7 11 4 6 - - -
28/12:00am - - - - - S 7 11 4 6 - - -
 
Date/Time
WST
Tmp

°C
App
Tmp
°C
Dew
Point
°C
Rel
Hum
%
Delta-T

°C
Wind Press
QNH
hPa
Press
MSL
hPa
Rain
since
9 am
mm
Dir
 
Spd
km/h
Gust
km/h
Spd
kts
Gust
kts
27/11:30pm - - - - - SSE 9 13 5 7 - - -
27/11:00pm - - - - - SE 13 15 7 8 - - -
27/10:30pm - - - - - S 9 11 5 6 - - -
27/10:00pm - - - - - S 13 17 7 9 - - -
27/09:30pm - - - - - S 17 20 9 11 - - -
27/09:00pm - - - - - S 11 15 6 8 - - -
27/08:30pm - - - - - WSW 7 9 4 5 - - -
27/08:00pm - - - - - SE 7 9 4 5 - - -
27/07:30pm - - - - - SE 7 9 4 5 - - -
27/07:00pm - - - - - SE 9 11 5 6 - - -
27/06:30pm - - - - - SE 11 15 6 8 - - -
27/06:00pm - - - - - SE 11 15 6 8 - - -
27/05:30pm - - - - - SE 13 20 7 11 - - -
27/05:00pm - - - - - ESE 19 22 10 12 - - -
27/04:30pm - - - - - SE 24 32 13 17 - - -
27/04:00pm - - - - - SSE 24 30 13 16 - - -
27/03:30pm - - - - - S 20 26 11 14 - - -
27/03:00pm - - - - - S 17 20 9 11 - - -
27/02:30pm - - - - - SSW 19 28 10 15 - - -
27/02:00pm - - - - - SW 17 20 9 11 - - -
27/01:30pm - - - - - S 17 24 9 13 - - -
27/01:00pm - - - - - S 15 20 8 11 - - -
27/12:30pm - - - - - S 17 20 9 11 - - -
27/12:00pm - - - - - SE 19 20 10 11 - - -
27/11:30am - - - - - S 11 13 6 7 - - -
27/11:00am - - - - - SW 6 11 3 6 - - -
27/10:30am - - - - - SW 6 7 3 4 - - -
27/10:00am - - - - - SW 2 6 1 3 - - -
27/09:30am - - - - - WSW 6 7 3 4 - - -
27/09:00am - - - - - WSW 2 4 1 2 - - -
27/08:30am - - - - - WSW 6 7 3 4 - - -
27/08:00am - - - - - ESE 4 9 2 5 - - -
27/07:30am - - - - - WSW 19 24 10 13 - - -
27/07:00am - - - - - SW 11 15 6 8 - - -
27/06:30am - - - - - NNE 6 15 3 8 - - -
27/06:00am - - - - - E 7 19 4 10 - - -
27/05:30am - - - - - SSW 11 19 6 10 - - -
27/05:00am - - - - - NE 17 41 9 22 - - -
27/04:30am - - - - - NNE 17 22 9 12 - - -
27/04:00am - - - - - NE 17 24 9 13 - - -
27/03:30am - - - - - ENE 17 20 9 11 - - -
27/03:00am - - - - - ENE 22 28 12 15 - - -
27/02:30am - - - - - ENE 24 32 13 17 - - -
27/02:00am - - - - - ENE 28 37 15 20 - - -
27/01:30am - - - - - ENE 26 35 14 19 - - -
27/01:00am - - - - - ENE 26 35 14 19 - - -
27/12:30am - - - - - ENE 28 37 15 20 - - -
27/12:00am - - - - - E 20 30 11 16 - - -
 
Date/Time
WST
Tmp

°C
App
Tmp
°C
Dew
Point
°C
Rel
Hum
%
Delta-T

°C
Wind Press
QNH
hPa
Press
MSL
hPa
Rain
since
9 am
mm
Dir
 
Spd
km/h
Gust
km/h
Spd
kts
Gust
kts
26/11:30pm - - - - - E 22 32 12 17 - - -
26/11:00pm - - - - - E 17 24 9 13 - - -
26/10:30pm - - - - - E 22 30 12 16 - - -
26/10:00pm - - - - - ESE 26 39 14 21 - - -
26/09:30pm - - - - - E 19 22 10 12 - - -
26/09:00pm - - - - - E 15 19 8 10 - - -
26/08:30pm - - - - - SE 19 28 10 15 - - -
26/08:00pm - - - - - E 33 41 18 22 - - -
26/07:30pm - - - - - ENE 22 28 12 15 - - -
26/07:00pm - - - - - ESE 17 22 9 12 - - -
26/06:30pm - - - - - ESE 19 24 10 13 - - -
26/06:00pm - - - - - E 32 43 17 23 - - -
26/05:30pm - - - - - E 32 37 17 20 - - -
26/05:00pm - - - - - E 52 67 28 36 - - -
26/04:33pm - - - - - E 44 69 24 37 - - -
26/04:30pm - - - - - ENE 41 57 22 31 - - -
26/04:03pm - - - - - E 39 46 21 25 - - -
26/04:00pm - - - - - ENE 32 44 17 24 - - -
26/03:30pm - - - - - E 28 39 15 21 - - -
26/03:00pm - - - - - SSW 17 30 9 16 - - -
26/02:30pm - - - - - ESE 26 32 14 17 - - -
26/02:00pm - - - - - S 26 30 14 16 - - -
26/01:30pm - - - - - SSW 26 30 14 16 - - -
26/01:00pm - - - - - SW 15 19 8 10 - - -
26/12:30pm - - - - - SSW 4 7 2 4 - - -
26/12:00pm - - - - - SSE 17 24 9 13 - - -
26/11:30am - - - - - SSE 9 15 5 8 - - -
26/11:00am - - - - - E 24 32 13 17 - - -
26/10:30am - - - - - E 22 28 12 15 - - -
26/10:00am - - - - - E 32 43 17 23 - - -
26/09:30am - - - - - E 30 43 16 23 - - -
26/09:00am - - - - - E 28 37 15 20 - - -
26/08:30am - - - - - ENE 20 30 11 16 - - -
26/08:00am - - - - - E 24 32 13 17 - - -
26/07:30am - - - - - E 24 39 13 21 - - -
26/07:00am - - - - - E 26 35 14 19 - - -
26/06:30am - - - - - E 24 30 13 16 - - -
26/06:00am - - - - - E 24 33 13 18 - - -
26/05:30am - - - - - E 22 28 12 15 - - -
26/05:00am - - - - - E 20 28 11 15 - - -
26/04:30am - - - - - ESE 26 32 14 17 - - -
26/04:00am - - - - - ESE 22 30 12 16 - - -
26/03:30am - - - - - ESE 28 37 15 20 - - -
26/03:00am - - - - - ESE 28 37 15 20 - - -
26/02:30am - - - - - ESE 30 41 16 22 - - -
26/02:00am - - - - - ESE 26 35 14 19 - - -
26/01:30am - - - - - E 33 48 18 26 - - -
26/01:10am - - - - - E 33 52 18 28 - - -
26/01:00am - - - - - E 37 52 20 28 - - -
26/12:30am - - - - - E 33 43 18 23 - - -
26/12:00am - - - - - ESE 30 52 16 28 - - -
 
Date/Time
WST
Tmp

°C
App
Tmp
°C
Dew
Point
°C
Rel
Hum
%
Delta-T

°C
Wind Press
QNH
hPa
Press
MSL
hPa
Rain
since
9 am
mm
Dir
 
Spd
km/h
Gust
km/h
Spd
kts
Gust
kts
25/11:52pm - - - - - ESE 33 52 18 28 - - -
25/11:30pm - - - - - ESE 37 50 20 27 - - -
25/11:00pm - - - - - ESE 41 54 22 29 - - -
25/10:35pm - - - - - ESE 32 54 17 29 - - -
25/10:30pm - - - - - ESE 28 39 15 21 - - -
25/10:00pm - - - - - ESE 17 24 9 13 - - -
25/09:43pm - - - - - SE 28 37 15 20 - - -
25/09:30pm - - - - - SE 13 17 7 9 - - -
25/09:00pm - - - - - SSE 13 17 7 9 - - -
25/08:30pm - - - - - SSE 13 15 7 8 - - -
25/08:00pm - - - - - SSE 13 17 7 9 - - -
25/07:30pm - - - - - SSE 17 20 9 11 - - -
25/07:00pm - - - - - SSE 19 24 10 13 - - -
25/06:30pm - - - - - SE 22 26 12 14 - - -
25/06:00pm - - - - - SE 22 30 12 16 - - -
25/05:30pm - - - - - SE 20 28 11 15 - - -
25/05:00pm - - - - - S 13 24 7 13 - - -
25/04:30pm - - - - - SW 11 24 6 13 - - -
25/04:00pm - - - - - SW 9 19 5 10 - - -
25/03:30pm - - - - - SSE 17 28 9 15 - - -
25/03:00pm - - - - - SSE 15 28 8 15 - - -
25/02:30pm - - - - - SE 13 22 7 12 - - -
25/02:00pm - - - - - SSW 9 20 5 11 - - -
25/01:30pm - - - - - S 9 13 5 7 - - -
25/01:00pm - - - - - S 13 20 7 11 - - -
25/12:30pm - - - - - SSE 13 19 7 10 - - -

Latest Capital City Observations: Canberra | Sydney | Melbourne | Brisbane | Adelaide | Perth | Hobart | Darwin

Other Formats:

Comma delimited format used in spreadsheet applications
http://www.bom.gov.au/fwo/IDW60901/IDW60901.95620.axf

JavaScript Object Notation format (JSON) in row-major order
http://www.bom.gov.au/fwo/IDW60901/IDW60901.95620.json